createdAt,value
2022-12-23T00:01:08.993Z,3.88
2022-12-23T00:05:11.999Z,4.88
2022-12-23T00:09:14.833Z,3.75
2022-12-23T00:13:37.326Z,3.15
2022-12-23T00:17:44.449Z,2.17
2022-12-23T00:21:48.302Z,4.45
2022-12-23T00:25:51.267Z,6.70
2022-12-23T00:29:55.882Z,4.25
2022-12-23T00:33:58.728Z,3.78
2022-12-23T00:38:01.519Z,6.47
2022-12-23T00:42:21.953Z,5.10
2022-12-23T00:46:26.190Z,4.53
2022-12-23T00:50:29.777Z,5.95
2022-12-23T00:54:32.784Z,3.65
2022-12-23T00:58:35.567Z,5.20
2022-12-23T01:02:57.960Z,3.13
2022-12-23T01:07:01.361Z,4.15
2022-12-23T01:11:04.554Z,4.00
2022-12-23T01:15:08.666Z,3.67
2022-12-23T01:19:12.960Z,7.05
2022-12-23T01:23:15.715Z,6.80
2022-12-23T01:27:18.460Z,5.22
2022-12-23T01:31:21.235Z,7.10
2022-12-23T01:35:25.351Z,7.57
2022-12-23T01:39:28.117Z,8.70
2022-12-23T01:43:46.974Z,7.10
2022-12-23T01:47:53.470Z,6.50
2022-12-23T01:51:57.766Z,8.07
2022-12-23T01:56:03.879Z,5.88
2022-12-23T02:00:25.730Z,5.70
2022-12-23T02:04:28.474Z,7.20
2022-12-23T02:09:01.494Z,7.18
2022-12-23T02:13:09.723Z,5.70
2022-12-23T02:17:24.693Z,6.43
2022-12-23T02:21:51.272Z,8.63
2022-12-23T02:26:23.430Z,8.35
2022-12-23T02:30:41.699Z,8.25
2022-12-23T02:34:51.987Z,9.65
2022-12-23T02:39:02.428Z,10.45
2022-12-23T02:43:09.819Z,8.73
2022-12-23T02:47:20.742Z,9.73
2022-12-23T02:51:27.967Z,8.55
2022-12-23T02:55:34.767Z,9.65
2022-12-23T02:59:42.030Z,9.02
2022-12-23T03:03:48.355Z,9.15
2022-12-23T03:07:53.591Z,8.65
2022-12-23T03:12:04.959Z,12.85
2022-12-23T03:16:14.317Z,11.90
2022-12-23T03:20:27.713Z,11.45
2022-12-23T03:24:37.638Z,12.85
2022-12-23T03:28:46.771Z,9.65
2022-12-23T03:32:55.839Z,10.68
2022-12-23T03:37:04.314Z,10.35
2022-12-23T03:41:11.811Z,11.77
2022-12-23T03:45:38.230Z,12.38
2022-12-23T03:49:48.993Z,12.45
2022-12-23T03:53:57.952Z,14.65
2022-12-23T03:58:06.979Z,11.38
2022-12-23T04:02:15.860Z,10.70
2022-12-23T04:06:20.767Z,10.48
2022-12-23T04:10:25.958Z,11.07
2022-12-23T04:14:28.690Z,10.65
2022-12-23T04:18:31.519Z,11.73
2022-12-23T04:22:34.224Z,10.57
2022-12-23T04:26:38.335Z,11.20
2022-12-23T04:30:41.137Z,12.63
2022-12-23T04:34:44.052Z,13.25
2022-12-23T04:38:46.916Z,13.57
2022-12-23T04:42:51.116Z,17.08
2022-12-23T04:46:53.953Z,15.98
2022-12-23T04:50:56.788Z,18.48
2022-12-23T04:54:59.600Z,15.80
2022-12-23T04:59:04.249Z,17.20
2022-12-23T05:03:07.106Z,19.15
2022-12-23T05:07:10.055Z,17.70
2022-12-23T05:11:12.837Z,16.77
2022-12-23T05:15:16.966Z,20.63
2022-12-23T05:19:19.835Z,21.58
2022-12-23T05:23:22.604Z,20.75
2022-12-23T05:27:25.351Z,20.45
2022-12-23T05:31:29.507Z,22.42
2022-12-23T05:35:32.297Z,23.63
2022-12-23T05:39:35.036Z,22.40
2022-12-23T05:43:37.808Z,24.33
2022-12-23T05:47:41.866Z,19.35
2022-12-23T05:51:44.611Z,22.88
2022-12-23T05:55:47.920Z,21.55
2022-12-23T05:59:50.834Z,22.17
2022-12-23T06:03:55.165Z,25.48
2022-12-23T06:07:57.978Z,23.42
2022-12-23T06:12:00.726Z,19.27
2022-12-23T06:16:03.532Z,23.52
2022-12-23T06:20:11.216Z,25.67
2022-12-23T06:24:19.032Z,21.17
2022-12-23T06:28:21.773Z,22.88
2022-12-23T06:32:24.505Z,20.85
2022-12-23T06:36:28.637Z,25.95
2022-12-23T06:40:31.475Z,23.65
2022-12-23T06:44:34.276Z,22.92
2022-12-23T06:48:37.038Z,22.75
2022-12-23T06:52:41.144Z,25.25
2022-12-23T06:56:44.155Z,25.70
2022-12-23T07:00:46.955Z,25.02
2022-12-23T07:04:50.547Z,27.02
2022-12-23T07:08:54.640Z,27.77
2022-12-23T07:12:57.369Z,26.15
2022-12-23T07:17:00.182Z,25.25
2022-12-23T07:21:04.338Z,32.25
2022-12-23T07:25:09.788Z,28.95
2022-12-23T07:29:12.520Z,29.75
2022-12-23T07:33:15.385Z,29.30
2022-12-23T07:37:18.145Z,29.17
2022-12-23T07:41:22.221Z,28.92
2022-12-23T07:45:25.156Z,29.42
2022-12-23T07:49:27.961Z,29.25
2022-12-23T07:53:33.567Z,29.30
2022-12-23T07:57:38.441Z,30.33
2022-12-23T08:01:41.342Z,27.95
2022-12-23T08:05:44.223Z,25.02
2022-12-23T08:09:46.968Z,27.60
2022-12-23T08:13:52.803Z,25.80
2022-12-23T08:17:56.168Z,26.30
2022-12-23T08:21:58.899Z,24.23
2022-12-23T08:26:03.152Z,24.17
2022-12-23T08:30:11.097Z,17.67
2022-12-23T08:34:14.348Z,16.73
2022-12-23T08:38:17.098Z,19.02
2022-12-23T08:42:19.834Z,16.27
2022-12-23T08:46:24.729Z,13.90
2022-12-23T08:50:27.470Z,14.80
2022-12-23T08:54:30.321Z,14.88
2022-12-23T08:58:36.630Z,15.25
2022-12-23T09:02:40.964Z,16.23
2022-12-23T09:06:44.418Z,11.73
2022-12-23T09:10:47.161Z,9.88
2022-12-23T09:14:49.918Z,12.30
2022-12-23T09:18:54.115Z,13.05
2022-12-23T09:22:56.858Z,13.65
2022-12-23T09:26:59.676Z,13.60
2022-12-23T09:31:08.552Z,12.80
2022-12-23T09:35:12.703Z,12.85
2022-12-23T09:39:16.571Z,14.82
2022-12-23T09:43:29.600Z,13.50
2022-12-23T09:47:33.786Z,12.77
2022-12-23T09:51:38.266Z,14.27
2022-12-23T09:55:47.963Z,13.63
2022-12-23T10:00:03.043Z,12.48
2022-12-23T10:04:34.795Z,11.68
2022-12-23T10:08:42.162Z,14.75
2022-12-23T10:12:48.062Z,12.82
2022-12-23T10:16:53.754Z,15.68
2022-12-23T10:21:04.126Z,21.33
2022-12-23T10:25:15.368Z,18.25
2022-12-23T10:29:20.309Z,21.52
2022-12-23T10:33:25.087Z,20.70
2022-12-23T10:37:35.447Z,16.58
2022-12-23T10:41:51.056Z,19.92
2022-12-23T10:46:00.571Z,19.38
2022-12-23T10:50:17.463Z,18.02
2022-12-23T10:54:24.871Z,18.92
2022-12-23T10:58:29.069Z,17.40
2022-12-23T11:02:50.662Z,15.10
2022-12-23T11:07:18.220Z,19.02
2022-12-23T11:11:17.939Z,17.02
2022-12-23T11:15:32.500Z,13.23
2022-12-23T11:19:35.247Z,13.10
2022-12-23T11:23:37.981Z,14.00
2022-12-23T11:27:44.702Z,15.00
2022-12-23T11:31:49.098Z,16.15
2022-12-23T11:36:02.656Z,18.98
2022-12-23T11:40:06.954Z,16.75
2022-12-23T11:44:21.716Z,20.13
2022-12-23T11:48:30.335Z,23.52
2022-12-23T11:52:34.146Z,23.70
2022-12-23T11:56:39.540Z,26.23
2022-12-23T12:00:55.542Z,25.60
2022-12-23T12:05:03.187Z,23.58
2022-12-23T12:09:07.301Z,26.92
2022-12-23T12:13:24.769Z,25.42
2022-12-23T12:17:33.530Z,27.83
2022-12-23T12:21:39.821Z,26.25
2022-12-23T12:25:47.032Z,24.08
2022-12-23T12:29:56.678Z,29.42
2022-12-23T12:34:05.086Z,26.95
2022-12-23T12:38:17.274Z,23.33
2022-12-23T12:42:26.625Z,14.77
2022-12-23T12:46:33.439Z,15.57
2022-12-23T12:50:42.594Z,13.63
2022-12-23T12:54:53.433Z,12.70
2022-12-23T12:58:56.259Z,14.25
2022-12-23T13:03:21.185Z,10.02
2022-12-23T13:07:29.582Z,12.35
2022-12-23T13:11:44.897Z,11.93
2022-12-23T13:15:52.415Z,12.93
2022-12-23T13:20:02.005Z,11.05
2022-12-23T13:24:16.402Z,11.20
2022-12-23T13:28:33.320Z,10.80
2022-12-23T13:32:57.874Z,12.05
2022-12-23T13:37:12.346Z,10.93
2022-12-23T13:41:23.585Z,10.88
2022-12-23T13:45:33.855Z,10.30
2022-12-23T13:49:51.761Z,11.23
2022-12-23T13:54:04.386Z,14.02
2022-12-23T13:58:15.104Z,14.07
2022-12-23T14:02:49.909Z,16.33
2022-12-23T14:06:55.794Z,13.65
2022-12-23T14:11:00.962Z,15.35
2022-12-23T14:15:48.805Z,13.95
2022-12-23T14:20:06.632Z,13.07
2022-12-23T14:24:49.252Z,11.30
2022-12-23T14:29:03.863Z,12.93
2022-12-23T14:33:22.900Z,13.10
2022-12-23T14:37:39.202Z,16.33
2022-12-23T14:41:51.540Z,13.63
2022-12-23T14:45:55.237Z,12.50
2022-12-23T14:50:18.317Z,13.88
2022-12-23T14:54:39.143Z,14.32
2022-12-23T14:59:12.224Z,11.98
2022-12-23T15:03:15.345Z,10.63
2022-12-23T15:07:23.661Z,9.18
2022-12-23T15:11:31.023Z,12.88
2022-12-23T15:15:34.449Z,8.98
2022-12-23T15:19:46.595Z,7.43
2022-12-23T15:23:50.310Z,7.53
2022-12-23T15:28:01.278Z,8.52
2022-12-23T15:32:05.198Z,7.97
2022-12-23T15:36:10.755Z,7.47
2022-12-23T15:40:25.681Z,5.60
2022-12-23T15:44:36.307Z,6.05
2022-12-23T15:48:40.394Z,5.85
2022-12-23T15:52:45.297Z,4.95
2022-12-23T15:56:51.201Z,7.00
2022-12-23T16:00:57.440Z,4.75
2022-12-23T16:05:02.174Z,3.95
2022-12-23T16:09:07.641Z,3.42
2022-12-23T16:13:19.045Z,4.38
2022-12-23T16:17:32.976Z,3.10
2022-12-23T16:21:37.424Z,3.45
2022-12-23T16:25:45.422Z,2.58
2022-12-23T16:29:51.235Z,2.55
2022-12-23T16:33:57.990Z,3.20
2022-12-23T16:38:11.920Z,3.63
2022-12-23T16:42:14.677Z,2.85
2022-12-23T16:46:18.951Z,2.15
2022-12-23T16:50:23.226Z,5.60
2022-12-23T16:54:25.968Z,2.40
2022-12-23T16:58:28.730Z,3.53
2022-12-23T17:02:34.307Z,3.88
2022-12-23T17:06:40.614Z,5.53
2022-12-23T17:10:45.392Z,3.80
2022-12-23T17:14:48.142Z,3.80
2022-12-23T17:18:52.385Z,4.55
2022-12-23T17:23:00.308Z,2.80
2022-12-23T17:27:03.136Z,2.72
2022-12-23T17:31:13.779Z,2.85
2022-12-23T17:35:17.846Z,2.30
2022-12-23T17:39:22.756Z,2.55
2022-12-23T17:43:26.205Z,1.98
2022-12-23T17:47:28.951Z,1.67
2022-12-23T17:51:31.777Z,2.10
2022-12-23T17:55:35.856Z,2.65
2022-12-23T17:59:38.678Z,2.70
2022-12-23T18:03:41.424Z,3.03
2022-12-23T18:07:44.204Z,3.60
2022-12-23T18:11:48.446Z,4.57
2022-12-23T18:15:51.428Z,4.13
2022-12-23T18:19:54.761Z,6.60
2022-12-23T18:23:59.920Z,7.30
2022-12-23T18:28:05.142Z,8.27
2022-12-23T18:32:08.087Z,10.32
2022-12-23T18:36:21.309Z,10.63
2022-12-23T18:40:29.326Z,11.93
2022-12-23T18:44:36.747Z,13.20
2022-12-23T18:48:39.686Z,13.63
2022-12-23T18:52:42.543Z,15.70
2022-12-23T18:56:45.398Z,14.82
2022-12-23T19:00:50.596Z,14.52
2022-12-23T19:04:53.395Z,15.73
2022-12-23T19:08:56.147Z,14.63
2022-12-23T19:12:58.920Z,13.73
2022-12-23T19:17:03.213Z,14.07
2022-12-23T19:21:06.484Z,13.30
2022-12-23T19:25:11.167Z,11.05
2022-12-23T19:29:13.980Z,11.75
2022-12-23T19:33:18.272Z,10.00
2022-12-23T19:37:21.346Z,9.05
2022-12-23T19:41:24.184Z,12.23
2022-12-23T19:45:26.917Z,10.60
2022-12-23T19:49:31.390Z,9.25
2022-12-23T19:53:34.794Z,11.85
2022-12-23T19:57:37.580Z,11.32
2022-12-23T20:01:40.409Z,12.75
2022-12-23T20:05:49.504Z,13.32
2022-12-23T20:09:52.401Z,14.07
2022-12-23T20:13:56.223Z,14.95
2022-12-23T20:18:01.234Z,12.63
2022-12-23T20:22:05.308Z,11.13
2022-12-23T20:26:08.124Z,12.43
2022-12-23T20:30:14.299Z,14.27
2022-12-23T20:34:18.088Z,12.93
2022-12-23T20:38:22.870Z,12.25
2022-12-23T20:42:27.140Z,11.65
2022-12-23T20:46:30.000Z,13.32
2022-12-23T20:50:32.807Z,14.05
2022-12-23T20:54:36.891Z,15.32
2022-12-23T20:58:57.676Z,15.95
2022-12-23T21:03:05.281Z,16.83
2022-12-23T21:07:11.313Z,19.15
2022-12-23T21:11:16.020Z,17.77
2022-12-23T21:15:18.845Z,19.38
2022-12-23T21:19:23.423Z,12.75
2022-12-23T21:23:26.250Z,15.10
2022-12-23T21:27:30.340Z,17.65
2022-12-23T21:31:34.743Z,20.73
2022-12-23T21:35:37.625Z,22.55
2022-12-23T21:39:40.410Z,25.05
2022-12-23T21:43:44.585Z,19.23
2022-12-23T21:47:47.427Z,13.60
2022-12-23T21:51:50.328Z,13.93
2022-12-23T21:55:53.045Z,15.18
2022-12-23T21:59:57.143Z,9.98
2022-12-23T22:04:00.470Z,7.35
2022-12-23T22:08:03.239Z,8.43
2022-12-23T22:12:06.289Z,8.70
2022-12-23T22:16:12.005Z,7.97
2022-12-23T22:20:14.845Z,8.73
2022-12-23T22:24:17.586Z,8.15
2022-12-23T22:28:20.369Z,10.77
2022-12-23T22:32:24.422Z,17.02
2022-12-23T22:36:27.659Z,16.13
2022-12-23T22:40:30.573Z,21.75
2022-12-23T22:44:33.380Z,25.60
2022-12-23T22:48:37.527Z,21.92
2022-12-23T22:52:40.344Z,22.33
2022-12-23T22:56:43.350Z,22.85
2022-12-23T23:00:46.177Z,16.52
2022-12-23T23:04:50.373Z,17.80
2022-12-23T23:08:53.244Z,15.32
2022-12-23T23:12:56.000Z,19.45
2022-12-23T23:16:59.105Z,19.02
2022-12-23T23:21:03.251Z,20.42
2022-12-23T23:25:06.801Z,20.52
2022-12-23T23:29:09.713Z,18.55
2022-12-23T23:33:12.548Z,16.60
2022-12-23T23:37:16.618Z,14.40
2022-12-23T23:41:23.361Z,16.60
2022-12-23T23:45:27.429Z,18.35
2022-12-23T23:49:30.200Z,15.15
2022-12-23T23:53:34.398Z,15.70
2022-12-23T23:57:37.207Z,16.05
